AirNav   Bose ProFlight Series 2 Headset
 
 1240 users online  

50KY Zanzibar Farm Airport
Paris, Kentucky, USA

GOING TO PARIS?


FAA INFORMATION EFFECTIVE 26 MARCH 2020

Location

FAA Identifier: 50KY
Lat/Long: 38-07-47.2760N 084-19-48.7610W
38-07.787933N 084-19.812683W
38.1297989,-84.3302114
(estimated)
Elevation: 915 ft. / 279 m (estimated)
Variation: 03W (1985)
From city: 5 miles SW of PARIS, KY
Time zone: UTC -4 (UTC -5 during Standard Time)
Zip code: 40361

Airport Operations

Airport use: Private use. Permission required prior to landing
Activation date: 11/1989
Control tower: no
ARTCC: INDIANAPOLIS CENTER
FSS: LOUISVILLE FLIGHT SERVICE STATION
Attendance: UNATNDD
Wind indicator: yes
Segmented circle: no

Airport Communications

WX AWOS-3 at 27K (8 nm NW): 119.975 (502-867-1564)
WX ASOS at LEX (14 nm SW): PHONE 859-281-5700
WX AWOS-3 at IOB (17 nm E): 120.675 (859-498-7001)

Nearby radio navigation aids

VOR radial/distance  VOR name  Freq  Var
HYKr034/11.9LEXINGTON VOR/DME112.6000E
FFTr100/(27.5)FRANKFORT VOR109.4003W
FLMr186/31.2FALMOUTH VOR/DME117.0004W

 
NDB name  Hdg/Dist  Freq  Var  ID
BRIDL092/8.334004WGN --. -.
MOUNT STERLING290/17.021006WIOB .. --- -...
SECO331/26.439303WXYC -..- -.-- -.-.
GOODALL035/39.031103WDVK -.. ...- -.-

Airport Services

Runway Information

Runway 7/25

Dimensions: 2200 x 60 ft. / 671 x 18 m
Surface: turf
RUNWAY 7  RUNWAY 25
Traffic pattern: leftleft

Airport Ownership and Management from official FAA records

Ownership: Privately-owned
Owner: LARRY & J.C. PITMAN
5424 BRYAN STATION RD
PARIS, KY 40361
Phone 859-983-3911
Manager: LARRY & J.C. PITMAN
5424 BRYAN STATION RD
PARIS, KY 40361
Phone (859) 229-5022

Airport Operational Statistics

Aircraft based on the field: 2
Single engine airplanes: 2
    

Additional Remarks

FOR CD CTC LEXINGTON APCH AT 859-514-7890.

Instrument Procedures

There are no published instrument procedures at 50KY.

Some nearby airports with instrument procedures:

27K - Georgetown-Scott County Regional Airport (8 nm NW)
KLEX - Blue Grass Airport (14 nm SW)
0I8 - Cynthiana-Harrison County Airport (14 nm N)
KIOB - Mount Sterling-Montgomery County Airport (17 nm E)
KFFT - Capital City Airport (27 nm W)
 
Loc | Ops | Rwys | IFR | FBO | Links
Com | Nav | Svcs | Stats | Notes
Area around 50KY (Zanzibar Farm Airport)
 
Road maps at: MapQuest Bing Google
 
Aerial photo
No photo
 
Sectional chart

 
Airport distance calculator
Flying to Zanzibar Farm Airport? Find the distance to fly.

From to 50KY

Sunrise and sunset
Times for 30-Mar-2020
 Local
(UTC-4)
 Zulu
(UTC)
Morning civil twilight06:5810:58
Sunrise07:2511:25
Sunset19:5823:58
Evening civil twilight20:2500:25

Current date and time
Zulu (UTC)  30-Mar-2020 21:07:51
Local (UTC-4)  30-Mar-2020 17:07:51
 
METAR
K27K 
8nm NW 
302055Z AUTO 28009KT 10SM CLR 16/00 A3009 RMK AO1
KLEX 
14nm SW 
302054Z 28011KT 10SM CLR 16/01 A3008 RMK AO2 SLP186 T01610006 56025
KIOB 
17nm E 
302055Z AUTO 29011G16KT 250V310 10SM CLR 17/00 A3009 RMK AO2
TAF
KLEX 
14nm SW 
301730Z 3018/3118 28014G21KT P6SM SCT250 FM302300 VRB05KT P6SM OVC250 FM311000 05005KT P6SM OVC100 FM311300 06007KT P6SM OVC050 FM311500 06007KT P6SM VCSH OVC025
NOTAMs
Click for the latest NOTAMs
NOTAMs are issued by the DoD/FAA and will open in a separate window not controlled by AirNav.

 

 
 

Would you like to see your business listed on this page?

 If your business provides an interesting product or service to pilots, flight crews, aircraft, or users of the Zanzibar Farm Airport, you should consider listing it here.  To start the listing process, click on the button below
 
Add a business
 

Other Pages about Zanzibar Farm Airport

Update a link
 
Copyright © AirNav, LLC. All rights reserved. Privacy Policy  Contact